Portada
METAR-TAF:

METAR-TAF

Aeropuertos :

Garden City, Kansas, Estados Unidos

latitud: 37-55-39N, longitud: 100-43-28W, altitud: 881 m

Observación

El informe se hizo hace 29 minutos, a las 18:54 UTC
Viento 10 kt del sur
Temperatura 33°C
Humedad 36%
Presión 1020 hPa
Visibilidad: 16.1 km
Cielo despejado

METAR: KGCK 151854Z 18010KT 10SM CLR 33/16 A3012 RMK AO2 SLP160 T03330156

Hora: 14:23 (19:23 UTC)

Pronóstico

El informe se hizo hace 1 hora y 23 minutos, a las 18:00 UTC
Pronóstico válido del 15 a las 18 UTC al 16 a las 18 UTC
Viento 10 kt del sur
Visibilidad: 10 km
Cielo despejado

TAF: KGCK 151800Z 1518/1618 18010KT P6SM SKC

Observaciones y pronósticos meteorológicos de más de 4000 aeropuertos (mensajes METAR y TAF).

Los puntos amarillos y rojos representan las estaciones disponibles.

Ponga el ratón en el punto deseado para ver el nombre de la estación.

Haga clic para ver las observaciones y los pronósticos meteorológicos.

Para cambiar el mapa : haga clic en los botones verdes con una cruz de color negro para hacer un zoom, en el botón verde con un guión para alejar o en las flechas verdes para mapas adyacentes.


METAR-TAF: